sensor_id;sensor_type;location;lat;lon;timestamp;P1;durP1;ratioP1;P2;durP2;ratioP2
35324;SDS011;35135;47.510;19.036;2023-04-30T00:02:09;4.32;;;3.33;;
35324;SDS011;35135;47.510;19.036;2023-04-30T00:04:35;3.55;;;3.20;;
35324;SDS011;35135;47.510;19.036;2023-04-30T00:07:01;4.28;;;3.45;;
35324;SDS011;35135;47.510;19.036;2023-04-30T00:09:26;3.83;;;3.20;;
35324;SDS011;35135;47.510;19.036;2023-04-30T00:11:52;3.88;;;3.47;;
35324;SDS011;35135;47.510;19.036;2023-04-30T00:14:18;5.65;;;3.30;;
35324;SDS011;35135;47.510;19.036;2023-04-30T00:16:43;4.53;;;3.63;;
35324;SDS011;35135;47.510;19.036;2023-04-30T00:19:09;3.88;;;3.38;;
35324;SDS011;35135;47.510;19.036;2023-04-30T00:21:35;3.88;;;3.42;;
35324;SDS011;35135;47.510;19.036;2023-04-30T00:24:00;3.45;;;3.00;;
35324;SDS011;35135;47.510;19.036;2023-04-30T00:26:26;3.90;;;3.58;;
35324;SDS011;35135;47.510;19.036;2023-04-30T00:28:52;3.60;;;3.05;;
35324;SDS011;35135;47.510;19.036;2023-04-30T00:31:18;4.55;;;3.38;;
35324;SDS011;35135;47.510;19.036;2023-04-30T00:33:43;4.85;;;3.47;;
35324;SDS011;35135;47.510;19.036;2023-04-30T00:36:09;4.07;;;3.67;;
35324;SDS011;35135;47.510;19.036;2023-04-30T00:38:35;3.78;;;3.35;;
35324;SDS011;35135;47.510;19.036;2023-04-30T00:41:00;3.55;;;3.22;;
35324;SDS011;35135;47.510;19.036;2023-04-30T00:43:26;4.10;;;3.70;;
35324;SDS011;35135;47.510;19.036;2023-04-30T00:45:52;4.63;;;3.72;;
35324;SDS011;35135;47.510;19.036;2023-04-30T00:48:17;3.58;;;3.20;;
35324;SDS011;35135;47.510;19.036;2023-04-30T00:50:43;4.38;;;3.53;;
35324;SDS011;35135;47.510;19.036;2023-04-30T00:53:09;4.45;;;3.10;;
35324;SDS011;35135;47.510;19.036;2023-04-30T00:55:36;4.68;;;4.03;;
35324;SDS011;35135;47.510;19.036;2023-04-30T00:58:03;4.22;;;3.65;;
35324;SDS011;35135;47.510;19.036;2023-04-30T01:00:29;4.18;;;3.45;;
35324;SDS011;35135;47.510;19.036;2023-04-30T01:02:55;3.72;;;3.25;;
35324;SDS011;35135;47.510;19.036;2023-04-30T01:05:21;3.58;;;3.10;;
35324;SDS011;35135;47.510;19.036;2023-04-30T01:07:47;3.30;;;3.00;;
35324;SDS011;35135;47.510;19.036;2023-04-30T01:10:13;3.35;;;3.05;;
35324;SDS011;35135;47.510;19.036;2023-04-30T01:15:45;3.78;;;3.35;;
35324;SDS011;35135;47.510;19.036;2023-04-30T01:18:22;3.70;;;3.30;;
35324;SDS011;35135;47.510;19.036;2023-04-30T01:20:53;4.07;;;3.35;;
35324;SDS011;35135;47.510;19.036;2023-04-30T01:23:47;3.70;;;3.40;;
35324;SDS011;35135;47.510;19.036;2023-04-30T01:26:34;4.10;;;3.55;;
35324;SDS011;35135;47.510;19.036;2023-04-30T01:29:13;3.75;;;3.10;;
35324;SDS011;35135;47.510;19.036;2023-04-30T01:31:42;3.00;;;2.70;;
35324;SDS011;35135;47.510;19.036;2023-04-30T01:34:08;3.53;;;3.20;;
35324;SDS011;35135;47.510;19.036;2023-04-30T01:45:31;3.72;;;3.13;;
35324;SDS011;35135;47.510;19.036;2023-04-30T01:51:40;2.72;;;2.50;;
35324;SDS011;35135;47.510;19.036;2023-04-30T01:56:43;3.75;;;2.95;;
35324;SDS011;35135;47.510;19.036;2023-04-30T01:59:16;3.28;;;2.97;;
35324;SDS011;35135;47.510;19.036;2023-04-30T02:01:41;3.53;;;2.83;;
35324;SDS011;35135;47.510;19.036;2023-04-30T02:04:07;3.50;;;2.72;;
35324;SDS011;35135;47.510;19.036;2023-04-30T02:06:33;3.17;;;2.88;;
35324;SDS011;35135;47.510;19.036;2023-04-30T02:08:58;3.40;;;2.90;;
35324;SDS011;35135;47.510;19.036;2023-04-30T02:11:29;3.85;;;2.95;;
35324;SDS011;35135;47.510;19.036;2023-04-30T02:13:55;3.67;;;2.80;;
35324;SDS011;35135;47.510;19.036;2023-04-30T02:16:20;3.35;;;2.90;;
35324;SDS011;35135;47.510;19.036;2023-04-30T02:18:46;4.10;;;2.80;;
35324;SDS011;35135;47.510;19.036;2023-04-30T02:21:12;3.70;;;3.05;;
35324;SDS011;35135;47.510;19.036;2023-04-30T02:23:38;3.42;;;3.00;;
35324;SDS011;35135;47.510;19.036;2023-04-30T02:26:04;3.30;;;3.00;;
35324;SDS011;35135;47.510;19.036;2023-04-30T02:28:30;3.45;;;2.85;;
35324;SDS011;35135;47.510;19.036;2023-04-30T02:30:56;3.20;;;2.67;;
35324;SDS011;35135;47.510;19.036;2023-04-30T02:33:21;4.28;;;3.13;;
35324;SDS011;35135;47.510;19.036;2023-04-30T02:35:47;3.10;;;2.80;;
35324;SDS011;35135;47.510;19.036;2023-04-30T02:38:13;3.45;;;2.75;;
35324;SDS011;35135;47.510;19.036;2023-04-30T02:40:40;5.28;;;3.25;;
35324;SDS011;35135;47.510;19.036;2023-04-30T02:43:06;3.70;;;3.30;;
35324;SDS011;35135;47.510;19.036;2023-04-30T02:45:32;2.88;;;2.63;;
35324;SDS011;35135;47.510;19.036;2023-04-30T02:47:58;3.47;;;2.83;;
35324;SDS011;35135;47.510;19.036;2023-04-30T02:50:23;3.10;;;2.78;;
35324;SDS011;35135;47.510;19.036;2023-04-30T02:52:49;3.20;;;2.90;;
35324;SDS011;35135;47.510;19.036;2023-04-30T02:55:15;3.17;;;2.88;;
35324;SDS011;35135;47.510;19.036;2023-04-30T02:57:41;3.35;;;2.63;;
35324;SDS011;35135;47.510;19.036;2023-04-30T03:00:07;3.03;;;2.72;;
35324;SDS011;35135;47.510;19.036;2023-04-30T03:02:33;3.70;;;2.97;;
35324;SDS011;35135;47.510;19.036;2023-04-30T03:04:59;3.80;;;3.15;;
35324;SDS011;35135;47.510;19.036;2023-04-30T03:07:24;3.20;;;2.90;;
35324;SDS011;35135;47.510;19.036;2023-04-30T03:09:50;3.47;;;3.17;;
35324;SDS011;35135;47.510;19.036;2023-04-30T03:12:16;3.53;;;3.22;;
35324;SDS011;35135;47.510;19.036;2023-04-30T03:14:42;3.97;;;2.90;;
35324;SDS011;35135;47.510;19.036;2023-04-30T03:17:07;3.30;;;3.00;;
35324;SDS011;35135;47.510;19.036;2023-04-30T03:19:33;3.55;;;3.25;;
35324;SDS011;35135;47.510;19.036;2023-04-30T03:21:59;3.33;;;2.90;;
35324;SDS011;35135;47.510;19.036;2023-04-30T03:24:24;3.15;;;2.72;;
35324;SDS011;35135;47.510;19.036;2023-04-30T03:26:50;3.38;;;2.85;;
35324;SDS011;35135;47.510;19.036;2023-04-30T03:29:16;3.40;;;2.90;;
35324;SDS011;35135;47.510;19.036;2023-04-30T03:31:41;3.97;;;2.88;;
35324;SDS011;35135;47.510;19.036;2023-04-30T03:34:07;3.15;;;2.72;;
35324;SDS011;35135;47.510;19.036;2023-04-30T03:36:33;3.30;;;2.95;;
35324;SDS011;35135;47.510;19.036;2023-04-30T03:38:59;3.45;;;3.00;;
35324;SDS011;35135;47.510;19.036;2023-04-30T03:41:25;3.80;;;3.25;;
35324;SDS011;35135;47.510;19.036;2023-04-30T03:43:51;3.92;;;3.08;;
35324;SDS011;35135;47.510;19.036;2023-04-30T03:46:17;4.25;;;3.03;;
35324;SDS011;35135;47.510;19.036;2023-04-30T03:48:42;3.83;;;3.05;;
35324;SDS011;35135;47.510;19.036;2023-04-30T03:51:08;3.10;;;2.80;;
35324;SDS011;35135;47.510;19.036;2023-04-30T03:53:34;4.00;;;3.55;;
35324;SDS011;35135;47.510;19.036;2023-04-30T03:56:00;2.90;;;2.53;;
35324;SDS011;35135;47.510;19.036;2023-04-30T03:58:27;4.05;;;3.15;;
35324;SDS011;35135;47.510;19.036;2023-04-30T04:00:53;3.20;;;2.90;;
35324;SDS011;35135;47.510;19.036;2023-04-30T04:03:19;3.08;;;2.78;;
35324;SDS011;35135;47.510;19.036;2023-04-30T04:05:46;2.85;;;2.60;;
35324;SDS011;35135;47.510;19.036;2023-04-30T04:08:12;3.28;;;2.80;;
35324;SDS011;35135;47.510;19.036;2023-04-30T04:10:38;3.22;;;2.70;;
35324;SDS011;35135;47.510;19.036;2023-04-30T04:13:04;3.70;;;3.13;;
35324;SDS011;35135;47.510;19.036;2023-04-30T04:15:30;2.97;;;2.67;;
35324;SDS011;35135;47.510;19.036;2023-04-30T04:17:56;3.05;;;2.75;;
35324;SDS011;35135;47.510;19.036;2023-04-30T04:20:22;3.40;;;3.10;;
35324;SDS011;35135;47.510;19.036;2023-04-30T04:22:48;2.92;;;2.58;;
35324;SDS011;35135;47.510;19.036;2023-04-30T04:25:13;3.67;;;2.90;;
35324;SDS011;35135;47.510;19.036;2023-04-30T04:27:39;3.22;;;2.58;;
35324;SDS011;35135;47.510;19.036;2023-04-30T04:30:06;3.85;;;3.10;;
35324;SDS011;35135;47.510;19.036;2023-04-30T04:32:32;3.15;;;2.70;;
35324;SDS011;35135;47.510;19.036;2023-04-30T04:35:06;3.65;;;2.90;;
35324;SDS011;35135;47.510;19.036;2023-04-30T04:37:32;3.17;;;2.80;;
35324;SDS011;35135;47.510;19.036;2023-04-30T04:39:58;3.08;;;2.72;;
35324;SDS011;35135;47.510;19.036;2023-04-30T04:42:25;3.00;;;2.70;;
35324;SDS011;35135;47.510;19.036;2023-04-30T04:44:50;3.13;;;2.83;;
35324;SDS011;35135;47.510;19.036;2023-04-30T04:47:16;3.17;;;2.75;;
35324;SDS011;35135;47.510;19.036;2023-04-30T04:49:45;3.25;;;2.95;;
35324;SDS011;35135;47.510;19.036;2023-04-30T04:52:11;3.63;;;3.15;;
35324;SDS011;35135;47.510;19.036;2023-04-30T04:54:37;3.30;;;3.00;;
35324;SDS011;35135;47.510;19.036;2023-04-30T04:57:02;3.10;;;2.80;;
35324;SDS011;35135;47.510;19.036;2023-04-30T04:59:28;3.38;;;3.08;;
35324;SDS011;35135;47.510;19.036;2023-04-30T05:01:54;3.85;;;3.22;;
35324;SDS011;35135;47.510;19.036;2023-04-30T05:04:20;3.40;;;2.92;;
35324;SDS011;35135;47.510;19.036;2023-04-30T05:06:46;4.03;;;2.95;;
35324;SDS011;35135;47.510;19.036;2023-04-30T05:09:12;3.55;;;2.88;;
35324;SDS011;35135;47.510;19.036;2023-04-30T05:11:37;3.78;;;2.85;;
35324;SDS011;35135;47.510;19.036;2023-04-30T05:14:05;3.50;;;3.20;;
35324;SDS011;35135;47.510;19.036;2023-04-30T05:16:31;3.75;;;3.30;;
35324;SDS011;35135;47.510;19.036;2023-04-30T05:18:56;3.75;;;3.40;;
35324;SDS011;35135;47.510;19.036;2023-04-30T05:21:22;3.50;;;3.20;;
35324;SDS011;35135;47.510;19.036;2023-04-30T05:23:50;3.58;;;3.28;;
35324;SDS011;35135;47.510;19.036;2023-04-30T05:26:15;3.13;;;2.83;;
35324;SDS011;35135;47.510;19.036;2023-04-30T05:28:41;3.30;;;3.00;;
35324;SDS011;35135;47.510;19.036;2023-04-30T05:31:06;3.38;;;3.08;;
35324;SDS011;35135;47.510;19.036;2023-04-30T05:33:32;3.53;;;3.22;;
35324;SDS011;35135;47.510;19.036;2023-04-30T05:35:58;3.63;;;3.33;;
35324;SDS011;35135;47.510;19.036;2023-04-30T05:38:24;3.90;;;3.50;;
35324;SDS011;35135;47.510;19.036;2023-04-30T05:40:49;3.60;;;3.30;;
35324;SDS011;35135;47.510;19.036;2023-04-30T05:43:15;3.30;;;2.90;;
35324;SDS011;35135;47.510;19.036;2023-04-30T05:45:41;3.67;;;3.10;;
35324;SDS011;35135;47.510;19.036;2023-04-30T05:48:07;3.45;;;3.03;;
35324;SDS011;35135;47.510;19.036;2023-04-30T05:50:32;3.83;;;3.40;;
35324;SDS011;35135;47.510;19.036;2023-04-30T05:52:58;3.65;;;3.28;;
35324;SDS011;35135;47.510;19.036;2023-04-30T05:55:24;3.63;;;3.33;;
35324;SDS011;35135;47.510;19.036;2023-04-30T05:57:50;3.42;;;3.13;;
35324;SDS011;35135;47.510;19.036;2023-04-30T06:00:15;3.42;;;3.13;;
35324;SDS011;35135;47.510;19.036;2023-04-30T06:02:41;3.45;;;3.15;;
35324;SDS011;35135;47.510;19.036;2023-04-30T06:05:07;4.10;;;3.25;;
35324;SDS011;35135;47.510;19.036;2023-04-30T06:07:33;2.92;;;2.70;;
35324;SDS011;35135;47.510;19.036;2023-04-30T06:09:58;3.33;;;3.03;;
35324;SDS011;35135;47.510;19.036;2023-04-30T06:12:24;3.35;;;3.00;;
35324;SDS011;35135;47.510;19.036;2023-04-30T06:14:50;3.35;;;3.05;;
35324;SDS011;35135;47.510;19.036;2023-04-30T06:17:16;2.88;;;2.63;;
35324;SDS011;35135;47.510;19.036;2023-04-30T06:19:42;5.25;;;3.47;;
35324;SDS011;35135;47.510;19.036;2023-04-30T06:22:07;3.70;;;2.97;;
35324;SDS011;35135;47.510;19.036;2023-04-30T06:24:33;7.05;;;3.38;;
35324;SDS011;35135;47.510;19.036;2023-04-30T06:26:59;3.40;;;3.10;;
35324;SDS011;35135;47.510;19.036;2023-04-30T06:29:25;5.43;;;3.30;;
35324;SDS011;35135;47.510;19.036;2023-04-30T06:31:51;3.85;;;3.00;;
35324;SDS011;35135;47.510;19.036;2023-04-30T06:34:17;3.58;;;2.80;;
35324;SDS011;35135;47.510;19.036;2023-04-30T06:36:43;3.10;;;2.78;;
35324;SDS011;35135;47.510;19.036;2023-04-30T06:39:09;3.55;;;3.20;;
35324;SDS011;35135;47.510;19.036;2023-04-30T06:41:35;3.28;;;2.97;;
35324;SDS011;35135;47.510;19.036;2023-04-30T06:44:00;3.20;;;2.88;;
35324;SDS011;35135;47.510;19.036;2023-04-30T06:46:26;3.20;;;2.90;;
35324;SDS011;35135;47.510;19.036;2023-04-30T06:48:52;3.35;;;3.03;;
35324;SDS011;35135;47.510;19.036;2023-04-30T06:51:17;3.60;;;3.08;;
35324;SDS011;35135;47.510;19.036;2023-04-30T06:53:43;3.80;;;3.40;;
35324;SDS011;35135;47.510;19.036;2023-04-30T06:56:08;3.03;;;2.72;;
35324;SDS011;35135;47.510;19.036;2023-04-30T06:58:34;3.95;;;3.13;;
35324;SDS011;35135;47.510;19.036;2023-04-30T07:01:00;3.47;;;2.75;;
35324;SDS011;35135;47.510;19.036;2023-04-30T07:03:25;2.90;;;2.60;;
35324;SDS011;35135;47.510;19.036;2023-04-30T07:05:52;2.78;;;2.58;;
35324;SDS011;35135;47.510;19.036;2023-04-30T07:08:18;3.28;;;2.70;;
35324;SDS011;35135;47.510;19.036;2023-04-30T07:10:43;2.90;;;2.60;;
35324;SDS011;35135;47.510;19.036;2023-04-30T07:13:09;4.60;;;3.10;;
35324;SDS011;35135;47.510;19.036;2023-04-30T07:15:36;3.38;;;3.08;;
35324;SDS011;35135;47.510;19.036;2023-04-30T07:18:02;3.25;;;2.95;;
35324;SDS011;35135;47.510;19.036;2023-04-30T07:20:28;3.10;;;2.75;;
35324;SDS011;35135;47.510;19.036;2023-04-30T07:22:54;3.40;;;2.75;;
35324;SDS011;35135;47.510;19.036;2023-04-30T07:25:20;5.63;;;3.13;;
35324;SDS011;35135;47.510;19.036;2023-04-30T07:27:46;6.32;;;2.80;;
35324;SDS011;35135;47.510;19.036;2023-04-30T07:30:11;3.33;;;2.90;;
35324;SDS011;35135;47.510;19.036;2023-04-30T07:32:38;4.25;;;3.20;;
35324;SDS011;35135;47.510;19.036;2023-04-30T07:35:05;6.03;;;3.10;;
35324;SDS011;35135;47.510;19.036;2023-04-30T07:37:31;3.17;;;2.70;;
35324;SDS011;35135;47.510;19.036;2023-04-30T07:39:57;4.07;;;2.47;;
35324;SDS011;35135;47.510;19.036;2023-04-30T07:42:22;3.30;;;2.58;;
35324;SDS011;35135;47.510;19.036;2023-04-30T07:44:48;3.00;;;2.70;;
35324;SDS011;35135;47.510;19.036;2023-04-30T07:47:14;3.35;;;2.67;;
35324;SDS011;35135;47.510;19.036;2023-04-30T07:49:40;2.60;;;2.40;;
35324;SDS011;35135;47.510;19.036;2023-04-30T07:52:05;4.05;;;2.50;;
35324;SDS011;35135;47.510;19.036;2023-04-30T07:54:34;3.72;;;2.60;;
35324;SDS011;35135;47.510;19.036;2023-04-30T07:57:02;3.90;;;2.63;;
35324;SDS011;35135;47.510;19.036;2023-04-30T07:59:29;3.25;;;2.60;;
35324;SDS011;35135;47.510;19.036;2023-04-30T08:01:55;2.80;;;2.30;;
35324;SDS011;35135;47.510;19.036;2023-04-30T08:04:20;3.20;;;2.55;;
35324;SDS011;35135;47.510;19.036;2023-04-30T08:06:46;2.72;;;2.40;;
35324;SDS011;35135;47.510;19.036;2023-04-30T08:09:12;3.22;;;2.70;;
35324;SDS011;35135;47.510;19.036;2023-04-30T08:11:37;2.97;;;2.60;;
35324;SDS011;35135;47.510;19.036;2023-04-30T08:14:03;3.10;;;2.38;;
35324;SDS011;35135;47.510;19.036;2023-04-30T08:16:30;2.90;;;2.40;;
35324;SDS011;35135;47.510;19.036;2023-04-30T08:18:56;2.65;;;2.35;;
35324;SDS011;35135;47.510;19.036;2023-04-30T08:21:23;2.60;;;2.35;;
35324;SDS011;35135;47.510;19.036;2023-04-30T08:23:49;2.80;;;2.40;;
35324;SDS011;35135;47.510;19.036;2023-04-30T08:26:15;2.83;;;2.40;;
35324;SDS011;35135;47.510;19.036;2023-04-30T08:28:41;2.42;;;2.22;;
35324;SDS011;35135;47.510;19.036;2023-04-30T08:31:06;2.50;;;2.00;;
35324;SDS011;35135;47.510;19.036;2023-04-30T08:33:32;2.60;;;2.30;;
35324;SDS011;35135;47.510;19.036;2023-04-30T08:35:58;2.50;;;2.30;;
35324;SDS011;35135;47.510;19.036;2023-04-30T08:38:24;3.03;;;2.60;;
35324;SDS011;35135;47.510;19.036;2023-04-30T08:41:24;2.40;;;2.13;;
35324;SDS011;35135;47.510;19.036;2023-04-30T08:43:44;2.45;;;2.25;;
35324;SDS011;35135;47.510;19.036;2023-04-30T08:46:10;2.58;;;2.38;;
35324;SDS011;35135;47.510;19.036;2023-04-30T08:48:38;2.70;;;2.20;;
35324;SDS011;35135;47.510;19.036;2023-04-30T08:51:05;4.07;;;2.20;;
35324;SDS011;35135;47.510;19.036;2023-04-30T08:53:33;2.42;;;2.22;;
35324;SDS011;35135;47.510;19.036;2023-04-30T08:56:00;2.25;;;2.05;;
35324;SDS011;35135;47.510;19.036;2023-04-30T08:58:27;2.28;;;2.08;;
35324;SDS011;35135;47.510;19.036;2023-04-30T09:00:52;2.50;;;1.80;;
35324;SDS011;35135;47.510;19.036;2023-04-30T09:03:20;3.03;;;2.35;;
35324;SDS011;35135;47.510;19.036;2023-04-30T09:05:47;4.63;;;2.25;;
35324;SDS011;35135;47.510;19.036;2023-04-30T09:08:16;4.75;;;2.15;;
35324;SDS011;35135;47.510;19.036;2023-04-30T09:10:43;2.30;;;2.00;;
35324;SDS011;35135;47.510;19.036;2023-04-30T09:13:09;3.45;;;2.13;;
35324;SDS011;35135;47.510;19.036;2023-04-30T09:15:36;3.92;;;2.50;;
35324;SDS011;35135;47.510;19.036;2023-04-30T09:18:12;2.20;;;2.00;;
35324;SDS011;35135;47.510;19.036;2023-04-30T09:23:26;2.42;;;2.08;;
35324;SDS011;35135;47.510;19.036;2023-04-30T09:25:52;2.78;;;1.92;;
35324;SDS011;35135;47.510;19.036;2023-04-30T09:28:18;2.90;;;2.13;;
35324;SDS011;35135;47.510;19.036;2023-04-30T09:30:48;2.35;;;1.90;;
35324;SDS011;35135;47.510;19.036;2023-04-30T09:33:14;3.22;;;2.13;;
35324;SDS011;35135;47.510;19.036;2023-04-30T09:35:40;2.08;;;1.80;;
35324;SDS011;35135;47.510;19.036;2023-04-30T09:38:06;2.28;;;1.95;;
35324;SDS011;35135;47.510;19.036;2023-04-30T09:40:48;4.50;;;2.65;;
35324;SDS011;35135;47.510;19.036;2023-04-30T09:43:14;6.15;;;3.85;;
35324;SDS011;35135;47.510;19.036;2023-04-30T09:48:17;11.70;;;5.43;;
35324;SDS011;35135;47.510;19.036;2023-04-30T09:50:49;11.43;;;5.70;;
35324;SDS011;35135;47.510;19.036;2023-04-30T09:53:16;13.55;;;6.82;;
35324;SDS011;35135;47.510;19.036;2023-04-30T09:55:43;14.00;;;6.82;;
35324;SDS011;35135;47.510;19.036;2023-04-30T09:58:11;18.65;;;8.55;;
35324;SDS011;35135;47.510;19.036;2023-04-30T10:00:37;19.08;;;9.02;;
35324;SDS011;35135;47.510;19.036;2023-04-30T10:03:10;19.48;;;9.55;;
35324;SDS011;35135;47.510;19.036;2023-04-30T10:05:38;26.17;;;9.57;;
35324;SDS011;35135;47.510;19.036;2023-04-30T10:08:09;21.45;;;9.57;;
35324;SDS011;35135;47.510;19.036;2023-04-30T10:10:39;20.50;;;9.93;;
35324;SDS011;35135;47.510;19.036;2023-04-30T10:13:09;23.20;;;9.80;;
35324;SDS011;35135;47.510;19.036;2023-04-30T10:15:39;19.80;;;9.57;;
35324;SDS011;35135;47.510;19.036;2023-04-30T10:18:11;21.30;;;9.45;;
35324;SDS011;35135;47.510;19.036;2023-04-30T10:20:41;24.47;;;10.20;;
35324;SDS011;35135;47.510;19.036;2023-04-30T10:23:07;19.75;;;10.30;;
35324;SDS011;35135;47.510;19.036;2023-04-30T10:25:33;20.15;;;9.32;;
35324;SDS011;35135;47.510;19.036;2023-04-30T10:27:59;20.63;;;10.18;;
35324;SDS011;35135;47.510;19.036;2023-04-30T10:30:25;20.15;;;9.55;;
35324;SDS011;35135;47.510;19.036;2023-04-30T10:35:43;23.05;;;9.63;;
35324;SDS011;35135;47.510;19.036;2023-04-30T10:38:30;19.00;;;11.15;;
35324;SDS011;35135;47.510;19.036;2023-04-30T10:40:59;24.15;;;16.38;;
35324;SDS011;35135;47.510;19.036;2023-04-30T10:43:26;26.42;;;18.52;;
35324;SDS011;35135;47.510;19.036;2023-04-30T10:45:54;24.50;;;19.35;;
35324;SDS011;35135;47.510;19.036;2023-04-30T10:48:22;25.17;;;20.27;;
35324;SDS011;35135;47.510;19.036;2023-04-30T10:50:49;28.95;;;22.15;;
35324;SDS011;35135;47.510;19.036;2023-04-30T10:53:18;30.17;;;24.15;;
35324;SDS011;35135;47.510;19.036;2023-04-30T10:55:51;24.23;;;21.20;;
35324;SDS011;35135;47.510;19.036;2023-04-30T10:58:21;23.58;;;21.17;;
35324;SDS011;35135;47.510;19.036;2023-04-30T11:00:49;23.75;;;21.17;;
35324;SDS011;35135;47.510;19.036;2023-04-30T11:03:24;24.35;;;21.88;;
35324;SDS011;35135;47.510;19.036;2023-04-30T11:05:50;26.85;;;23.23;;
35324;SDS011;35135;47.510;19.036;2023-04-30T11:08:18;23.17;;;20.33;;
35324;SDS011;35135;47.510;19.036;2023-04-30T11:11:07;23.35;;;20.80;;
35324;SDS011;35135;47.510;19.036;2023-04-30T11:13:43;21.27;;;19.23;;
35324;SDS011;35135;47.510;19.036;2023-04-30T11:16:11;21.30;;;19.30;;
35324;SDS011;35135;47.510;19.036;2023-04-30T11:18:50;22.45;;;20.05;;
35324;SDS011;35135;47.510;19.036;2023-04-30T11:21:16;22.55;;;18.30;;
35324;SDS011;35135;47.510;19.036;2023-04-30T11:23:47;21.25;;;18.30;;
35324;SDS011;35135;47.510;19.036;2023-04-30T11:26:13;19.55;;;17.50;;
35324;SDS011;35135;47.510;19.036;2023-04-30T11:28:39;18.23;;;16.33;;
35324;SDS011;35135;47.510;19.036;2023-04-30T11:31:16;16.63;;;14.90;;
35324;SDS011;35135;47.510;19.036;2023-04-30T11:33:42;18.00;;;16.15;;
35324;SDS011;35135;47.510;19.036;2023-04-30T11:36:08;18.42;;;15.18;;
35324;SDS011;35135;47.510;19.036;2023-04-30T11:38:35;15.85;;;13.60;;
35324;SDS011;35135;47.510;19.036;2023-04-30T11:41:01;15.80;;;13.50;;
35324;SDS011;35135;47.510;19.036;2023-04-30T11:43:32;13.68;;;11.70;;
35324;SDS011;35135;47.510;19.036;2023-04-30T11:48:37;12.63;;;11.18;;
35324;SDS011;35135;47.510;19.036;2023-04-30T11:51:05;13.10;;;10.25;;
35324;SDS011;35135;47.510;19.036;2023-04-30T11:53:41;12.52;;;9.68;;
35324;SDS011;35135;47.510;19.036;2023-04-30T11:56:07;10.13;;;9.10;;
35324;SDS011;35135;47.510;19.036;2023-04-30T11:58:33;11.60;;;9.13;;
35324;SDS011;35135;47.510;19.036;2023-04-30T12:01:02;10.75;;;8.48;;
35324;SDS011;35135;47.510;19.036;2023-04-30T12:03:28;8.55;;;7.55;;
35324;SDS011;35135;47.510;19.036;2023-04-30T12:05:55;9.27;;;7.97;;
35324;SDS011;35135;47.510;19.036;2023-04-30T12:08:20;8.82;;;7.50;;
35324;SDS011;35135;47.510;19.036;2023-04-30T12:10:47;7.68;;;6.82;;
35324;SDS011;35135;47.510;19.036;2023-04-30T12:13:13;7.68;;;6.88;;
35324;SDS011;35135;47.510;19.036;2023-04-30T12:15:41;7.93;;;6.40;;
35324;SDS011;35135;47.510;19.036;2023-04-30T12:18:10;7.70;;;6.82;;
35324;SDS011;35135;47.510;19.036;2023-04-30T12:20:37;7.25;;;6.43;;
35324;SDS011;35135;47.510;19.036;2023-04-30T12:23:04;12.25;;;6.82;;
35324;SDS011;35135;47.510;19.036;2023-04-30T12:25:38;6.85;;;5.75;;
35324;SDS011;35135;47.510;19.036;2023-04-30T12:28:05;8.43;;;5.97;;
35324;SDS011;35135;47.510;19.036;2023-04-30T12:30:30;8.60;;;5.97;;
35324;SDS011;35135;47.510;19.036;2023-04-30T12:32:57;7.22;;;5.50;;
35324;SDS011;35135;47.510;19.036;2023-04-30T12:35:26;5.95;;;4.90;;
35324;SDS011;35135;47.510;19.036;2023-04-30T12:38:03;6.00;;;5.20;;
35324;SDS011;35135;47.510;19.036;2023-04-30T12:40:30;6.78;;;5.18;;
35324;SDS011;35135;47.510;19.036;2023-04-30T12:48:22;4.47;;;3.97;;
35324;SDS011;35135;47.510;19.036;2023-04-30T12:50:58;7.82;;;4.07;;
35324;SDS011;35135;47.510;19.036;2023-04-30T12:53:25;4.95;;;3.53;;
35324;SDS011;35135;47.510;19.036;2023-04-30T12:58:42;6.88;;;3.83;;
35324;SDS011;35135;47.510;19.036;2023-04-30T13:01:11;6.65;;;3.50;;
35324;SDS011;35135;47.510;19.036;2023-04-30T13:03:37;5.47;;;3.92;;
35324;SDS011;35135;47.510;19.036;2023-04-30T13:06:03;5.85;;;3.97;;
35324;SDS011;35135;47.510;19.036;2023-04-30T13:08:30;4.63;;;3.50;;
35324;SDS011;35135;47.510;19.036;2023-04-30T13:10:57;6.65;;;3.95;;
35324;SDS011;35135;47.510;19.036;2023-04-30T13:13:23;4.70;;;3.40;;
35324;SDS011;35135;47.510;19.036;2023-04-30T13:15:48;4.38;;;3.25;;
35324;SDS011;35135;47.510;19.036;2023-04-30T13:18:14;5.15;;;3.20;;
35324;SDS011;35135;47.510;19.036;2023-04-30T13:20:40;5.15;;;3.22;;
35324;SDS011;35135;47.510;19.036;2023-04-30T13:23:07;3.27;;;2.93;;
35324;SDS011;35135;47.510;19.036;2023-04-30T13:25:34;3.28;;;2.95;;
35324;SDS011;35135;47.510;19.036;2023-04-30T13:28:00;5.93;;;3.40;;
35324;SDS011;35135;47.510;19.036;2023-04-30T13:30:26;9.88;;;3.60;;
35324;SDS011;35135;47.510;19.036;2023-04-30T13:32:53;7.97;;;3.33;;
35324;SDS011;35135;47.510;19.036;2023-04-30T13:35:18;4.53;;;2.90;;
35324;SDS011;35135;47.510;19.036;2023-04-30T13:37:45;8.07;;;3.20;;
35324;SDS011;35135;47.510;19.036;2023-04-30T13:40:13;5.10;;;2.90;;
35324;SDS011;35135;47.510;19.036;2023-04-30T13:42:40;3.65;;;2.78;;
35324;SDS011;35135;47.510;19.036;2023-04-30T13:45:06;6.03;;;2.72;;
35324;SDS011;35135;47.510;19.036;2023-04-30T13:47:33;6.45;;;2.95;;
35324;SDS011;35135;47.510;19.036;2023-04-30T13:49:59;3.15;;;2.60;;
35324;SDS011;35135;47.510;19.036;2023-04-30T13:52:25;3.28;;;2.50;;
35324;SDS011;35135;47.510;19.036;2023-04-30T13:54:51;3.78;;;2.63;;
35324;SDS011;35135;47.510;19.036;2023-04-30T13:57:17;4.57;;;1.95;;
35324;SDS011;35135;47.510;19.036;2023-04-30T13:59:42;4.75;;;2.03;;
35324;SDS011;35135;47.510;19.036;2023-04-30T14:02:08;2.88;;;2.30;;
35324;SDS011;35135;47.510;19.036;2023-04-30T14:04:35;3.33;;;2.60;;
35324;SDS011;35135;47.510;19.036;2023-04-30T14:07:02;4.32;;;2.08;;
35324;SDS011;35135;47.510;19.036;2023-04-30T14:09:28;2.83;;;2.22;;
35324;SDS011;35135;47.510;19.036;2023-04-30T14:11:54;3.00;;;2.22;;
35324;SDS011;35135;47.510;19.036;2023-04-30T14:14:23;3.25;;;2.22;;
35324;SDS011;35135;47.510;19.036;2023-04-30T14:16:52;2.80;;;2.30;;
35324;SDS011;35135;47.510;19.036;2023-04-30T14:19:18;2.15;;;1.83;;
35324;SDS011;35135;47.510;19.036;2023-04-30T14:21:45;3.13;;;2.17;;
35324;SDS011;35135;47.510;19.036;2023-04-30T14:24:10;3.83;;;2.28;;
35324;SDS011;35135;47.510;19.036;2023-04-30T14:26:37;3.22;;;2.05;;
35324;SDS011;35135;47.510;19.036;2023-04-30T14:29:04;4.07;;;1.98;;
35324;SDS011;35135;47.510;19.036;2023-04-30T14:31:30;1.63;;;1.50;;
35324;SDS011;35135;47.510;19.036;2023-04-30T14:33:56;2.90;;;1.70;;
35324;SDS011;35135;47.510;19.036;2023-04-30T14:36:22;2.00;;;1.60;;
35324;SDS011;35135;47.510;19.036;2023-04-30T14:38:47;1.77;;;1.42;;
35324;SDS011;35135;47.510;19.036;2023-04-30T14:41:13;2.38;;;1.70;;
35324;SDS011;35135;47.510;19.036;2023-04-30T14:43:39;2.20;;;1.50;;
35324;SDS011;35135;47.510;19.036;2023-04-30T14:46:05;4.38;;;1.50;;
35324;SDS011;35135;47.510;19.036;2023-04-30T14:48:31;3.75;;;1.85;;
35324;SDS011;35135;47.510;19.036;2023-04-30T14:50:57;4.55;;;1.70;;
35324;SDS011;35135;47.510;19.036;2023-04-30T14:53:23;3.78;;;1.80;;
35324;SDS011;35135;47.510;19.036;2023-04-30T14:55:49;5.82;;;1.85;;
35324;SDS011;35135;47.510;19.036;2023-04-30T14:58:14;2.40;;;1.65;;
35324;SDS011;35135;47.510;19.036;2023-04-30T15:00:40;2.35;;;1.92;;
35324;SDS011;35135;47.510;19.036;2023-04-30T15:03:06;2.63;;;1.75;;
35324;SDS011;35135;47.510;19.036;2023-04-30T15:05:31;1.85;;;1.52;;
35324;SDS011;35135;47.510;19.036;2023-04-30T15:07:57;3.38;;;1.70;;